sensor_id;sensor_type;location;lat;lon;timestamp;temperature;humidity
81867;DHT22;71318;-36.550;-64.300;2024-03-08T00:01:31;23.40;99.90
81867;DHT22;71318;-36.550;-64.300;2024-03-08T00:03:58;23.40;99.90
81867;DHT22;71318;-36.550;-64.300;2024-03-08T00:06:24;23.40;99.90
81867;DHT22;71318;-36.550;-64.300;2024-03-08T00:08:54;23.40;99.90
81867;DHT22;71318;-36.550;-64.300;2024-03-08T00:11:30;23.40;99.90
81867;DHT22;71318;-36.550;-64.300;2024-03-08T00:13:57;23.40;99.90
81867;DHT22;71318;-36.550;-64.300;2024-03-08T00:16:36;23.40;99.90
81867;DHT22;71318;-36.550;-64.300;2024-03-08T00:19:06;23.40;99.90
81867;DHT22;71318;-36.550;-64.300;2024-03-08T00:21:32;23.40;99.80
81867;DHT22;71318;-36.550;-64.300;2024-03-08T00:23:59;23.50;99.40
81867;DHT22;71318;-36.550;-64.300;2024-03-08T00:26:25;23.50;98.90
81867;DHT22;71318;-36.550;-64.300;2024-03-08T00:28:51;23.50;99.00
81867;DHT22;71318;-36.550;-64.300;2024-03-08T00:31:19;23.50;98.90
81867;DHT22;71318;-36.550;-64.300;2024-03-08T00:33:49;23.50;99.00
81867;DHT22;71318;-36.550;-64.300;2024-03-08T00:36:15;23.50;99.10
81867;DHT22;71318;-36.550;-64.300;2024-03-08T00:38:41;23.40;99.20
81867;DHT22;71318;-36.550;-64.300;2024-03-08T00:41:11;23.40;99.60
81867;DHT22;71318;-36.550;-64.300;2024-03-08T00:43:41;23.30;99.90
81867;DHT22;71318;-36.550;-64.300;2024-03-08T00:46:07;23.30;99.90
81867;DHT22;71318;-36.550;-64.300;2024-03-08T00:48:37;23.20;99.90
81867;DHT22;71318;-36.550;-64.300;2024-03-08T00:51:09;23.20;99.90
81867;DHT22;71318;-36.550;-64.300;2024-03-08T00:53:35;23.10;99.90
81867;DHT22;71318;-36.550;-64.300;2024-03-08T00:56:04;23.10;99.90
81867;DHT22;71318;-36.550;-64.300;2024-03-08T00:58:31;23.10;99.90
81867;DHT22;71318;-36.550;-64.300;2024-03-08T01:01:10;23.20;99.90
81867;DHT22;71318;-36.550;-64.300;2024-03-08T01:03:47;23.20;99.90
81867;DHT22;71318;-36.550;-64.300;2024-03-08T01:06:14;23.20;99.90
81867;DHT22;71318;-36.550;-64.300;2024-03-08T01:08:53;23.10;99.90
81867;DHT22;71318;-36.550;-64.300;2024-03-08T01:11:22;23.00;99.90
81867;DHT22;71318;-36.550;-64.300;2024-03-08T01:13:55;23.00;99.90
81867;DHT22;71318;-36.550;-64.300;2024-03-08T01:16:24;22.90;99.90
81867;DHT22;71318;-36.550;-64.300;2024-03-08T01:18:51;22.90;99.90
81867;DHT22;71318;-36.550;-64.300;2024-03-08T15:08:26;20.00;99.90
81867;DHT22;71318;-36.550;-64.300;2024-03-08T15:10:54;20.10;99.90
81867;DHT22;71318;-36.550;-64.300;2024-03-08T15:13:20;20.20;99.90
81867;DHT22;71318;-36.550;-64.300;2024-03-08T15:15:49;20.40;99.90
81867;DHT22;71318;-36.550;-64.300;2024-03-08T15:18:21;20.40;99.90
81867;DHT22;71318;-36.550;-64.300;2024-03-08T15:20:52;20.50;99.90
81867;DHT22;71318;-36.550;-64.300;2024-03-08T15:23:18;20.50;99.90
81867;DHT22;71318;-36.550;-64.300;2024-03-08T15:25:46;20.70;99.90
81867;DHT22;71318;-36.550;-64.300;2024-03-08T15:28:15;21.30;99.90
81867;DHT22;71318;-36.550;-64.300;2024-03-08T15:30:43;21.70;99.90
81867;DHT22;71318;-36.550;-64.300;2024-03-08T15:33:17;22.00;99.90
81867;DHT22;71318;-36.550;-64.300;2024-03-08T15:35:52;22.20;99.90
81867;DHT22;71318;-36.550;-64.300;2024-03-08T15:38:27;22.30;99.90
81867;DHT22;71318;-36.550;-64.300;2024-03-08T15:40:54;22.80;99.90
81867;DHT22;71318;-36.550;-64.300;2024-03-08T15:43:21;23.20;99.90
81867;DHT22;71318;-36.550;-64.300;2024-03-08T15:45:48;23.40;99.90
81867;DHT22;71318;-36.550;-64.300;2024-03-08T15:48:14;23.50;99.90
81867;DHT22;71318;-36.550;-64.300;2024-03-08T15:50:42;23.90;99.90
81867;DHT22;71318;-36.550;-64.300;2024-03-08T15:53:08;24.30;99.90
81867;DHT22;71318;-36.550;-64.300;2024-03-08T15:55:38;24.00;99.90
81867;DHT22;71318;-36.550;-64.300;2024-03-08T15:58:06;24.40;99.90
81867;DHT22;71318;-36.550;-64.300;2024-03-08T16:00:33;24.50;99.90
81867;DHT22;71318;-36.550;-64.300;2024-03-08T16:03:02;24.30;99.90
81867;DHT22;71318;-36.550;-64.300;2024-03-08T16:05:34;24.60;99.90
81867;DHT22;71318;-36.550;-64.300;2024-03-08T16:08:01;24.90;99.90
81867;DHT22;71318;-36.550;-64.300;2024-03-08T16:10:27;25.40;99.90
81867;DHT22;71318;-36.550;-64.300;2024-03-08T16:12:59;25.80;99.90
81867;DHT22;71318;-36.550;-64.300;2024-03-08T16:15:30;25.40;94.20
81867;DHT22;71318;-36.550;-64.300;2024-03-08T16:17:57;24.60;97.00
81867;DHT22;71318;-36.550;-64.300;2024-03-08T16:20:23;24.90;97.00
81867;DHT22;71318;-36.550;-64.300;2024-03-08T16:22:51;25.00;94.50
81867;DHT22;71318;-36.550;-64.300;2024-03-08T16:25:17;25.30;95.60
81867;DHT22;71318;-36.550;-64.300;2024-03-08T16:27:45;25.70;90.80
81867;DHT22;71318;-36.550;-64.300;2024-03-08T16:30:18;26.00;89.60
81867;DHT22;71318;-36.550;-64.300;2024-03-08T16:32:49;26.00;90.30
81867;DHT22;71318;-36.550;-64.300;2024-03-08T16:35:18;26.10;92.20
81867;DHT22;71318;-36.550;-64.300;2024-03-08T16:37:44;26.30;86.90
81867;DHT22;71318;-36.550;-64.300;2024-03-08T16:40:11;26.50;88.40
81867;DHT22;71318;-36.550;-64.300;2024-03-08T16:42:45;26.60;85.50
81867;DHT22;71318;-36.550;-64.300;2024-03-08T16:45:14;26.80;85.20
81867;DHT22;71318;-36.550;-64.300;2024-03-08T16:47:40;27.20;84.30
81867;DHT22;71318;-36.550;-64.300;2024-03-08T16:50:08;27.10;86.40
81867;DHT22;71318;-36.550;-64.300;2024-03-08T16:52:35;27.30;85.90
81867;DHT22;71318;-36.550;-64.300;2024-03-08T16:55:04;27.60;84.60
81867;DHT22;71318;-36.550;-64.300;2024-03-08T16:57:43;27.70;81.10
81867;DHT22;71318;-36.550;-64.300;2024-03-08T17:00:12;27.30;84.90
81867;DHT22;71318;-36.550;-64.300;2024-03-08T17:02:39;27.60;80.20
81867;DHT22;71318;-36.550;-64.300;2024-03-08T17:05:11;27.10;83.10
81867;DHT22;71318;-36.550;-64.300;2024-03-08T17:07:38;27.40;81.00
81867;DHT22;71318;-36.550;-64.300;2024-03-08T17:10:05;27.30;80.20
81867;DHT22;71318;-36.550;-64.300;2024-03-08T17:12:43;27.50;81.20
81867;DHT22;71318;-36.550;-64.300;2024-03-08T17:15:10;27.30;78.00
81867;DHT22;71318;-36.550;-64.300;2024-03-08T17:17:38;27.50;81.30
81867;DHT22;71318;-36.550;-64.300;2024-03-08T17:20:05;27.90;78.20
81867;DHT22;71318;-36.550;-64.300;2024-03-08T17:22:39;28.00;81.00
81867;DHT22;71318;-36.550;-64.300;2024-03-08T17:25:06;28.40;73.80
81867;DHT22;71318;-36.550;-64.300;2024-03-08T17:27:33;28.10;77.10
81867;DHT22;71318;-36.550;-64.300;2024-03-08T17:30:02;28.00;78.20
81867;DHT22;71318;-36.550;-64.300;2024-03-08T17:32:41;28.00;76.60
81867;DHT22;71318;-36.550;-64.300;2024-03-08T17:35:08;28.30;76.80
81867;DHT22;71318;-36.550;-64.300;2024-03-08T17:37:37;28.50;76.40
81867;DHT22;71318;-36.550;-64.300;2024-03-08T17:40:05;28.50;76.20
81867;DHT22;71318;-36.550;-64.300;2024-03-08T17:42:34;28.70;76.20
81867;DHT22;71318;-36.550;-64.300;2024-03-08T17:45:00;28.60;76.90
81867;DHT22;71318;-36.550;-64.300;2024-03-08T17:47:27;28.80;75.00
81867;DHT22;71318;-36.550;-64.300;2024-03-08T17:49:54;29.30;71.30
81867;DHT22;71318;-36.550;-64.300;2024-03-08T17:52:21;29.30;72.20
81867;DHT22;71318;-36.550;-64.300;2024-03-08T17:54:48;28.90;73.80
81867;DHT22;71318;-36.550;-64.300;2024-03-08T17:57:18;29.10;69.70
81867;DHT22;71318;-36.550;-64.300;2024-03-08T17:59:45;29.20;67.50
81867;DHT22;71318;-36.550;-64.300;2024-03-08T18:02:13;29.10;71.50
81867;DHT22;71318;-36.550;-64.300;2024-03-08T18:04:39;29.60;64.90
81867;DHT22;71318;-36.550;-64.300;2024-03-08T18:07:06;29.40;64.70
81867;DHT22;71318;-36.550;-64.300;2024-03-08T18:09:34;29.40;64.20
81867;DHT22;71318;-36.550;-64.300;2024-03-08T18:12:00;29.30;63.70
81867;DHT22;71318;-36.550;-64.300;2024-03-08T18:14:27;29.50;65.10
81867;DHT22;71318;-36.550;-64.300;2024-03-08T18:16:53;29.60;65.70
81867;DHT22;71318;-36.550;-64.300;2024-03-08T18:19:19;30.00;67.10
81867;DHT22;71318;-36.550;-64.300;2024-03-08T18:21:46;29.70;69.70
81867;DHT22;71318;-36.550;-64.300;2024-03-08T18:24:14;29.70;66.60
81867;DHT22;71318;-36.550;-64.300;2024-03-08T18:26:43;29.70;69.00
81867;DHT22;71318;-36.550;-64.300;2024-03-08T18:29:10;29.90;66.10
81867;DHT22;71318;-36.550;-64.300;2024-03-08T18:31:40;29.80;67.60
81867;DHT22;71318;-36.550;-64.300;2024-03-08T18:34:07;29.80;66.10
81867;DHT22;71318;-36.550;-64.300;2024-03-08T18:36:35;29.60;65.70
81867;DHT22;71318;-36.550;-64.300;2024-03-08T18:39:01;29.50;65.30
81867;DHT22;71318;-36.550;-64.300;2024-03-08T18:41:31;29.50;65.80
81867;DHT22;71318;-36.550;-64.300;2024-03-08T18:44:00;29.20;64.90
81867;DHT22;71318;-36.550;-64.300;2024-03-08T18:46:27;29.40;64.00
81867;DHT22;71318;-36.550;-64.300;2024-03-08T18:48:53;29.60;65.90
81867;DHT22;71318;-36.550;-64.300;2024-03-08T18:51:19;29.00;68.80
81867;DHT22;71318;-36.550;-64.300;2024-03-08T18:53:46;28.80;67.80
81867;DHT22;71318;-36.550;-64.300;2024-03-08T18:56:12;29.20;66.80
81867;DHT22;71318;-36.550;-64.300;2024-03-08T18:58:42;29.60;63.20
81867;DHT22;71318;-36.550;-64.300;2024-03-08T19:01:09;29.90;62.70
81867;DHT22;71318;-36.550;-64.300;2024-03-08T19:03:36;30.20;63.50
81867;DHT22;71318;-36.550;-64.300;2024-03-08T19:06:04;30.00;65.40
81867;DHT22;71318;-36.550;-64.300;2024-03-08T19:08:31;29.70;65.10
81867;DHT22;71318;-36.550;-64.300;2024-03-08T19:10:59;29.50;64.70
81867;DHT22;71318;-36.550;-64.300;2024-03-08T19:13:25;29.40;66.60
81867;DHT22;71318;-36.550;-64.300;2024-03-08T19:15:52;29.40;67.10
81867;DHT22;71318;-36.550;-64.300;2024-03-08T19:18:18;29.80;65.10
81867;DHT22;71318;-36.550;-64.300;2024-03-08T19:20:45;29.60;64.50
81867;DHT22;71318;-36.550;-64.300;2024-03-08T19:23:11;29.50;64.20
81867;DHT22;71318;-36.550;-64.300;2024-03-08T19:25:39;29.50;66.90
81867;DHT22;71318;-36.550;-64.300;2024-03-08T19:28:11;29.30;67.00
81867;DHT22;71318;-36.550;-64.300;2024-03-08T19:30:42;28.90;68.90
81867;DHT22;71318;-36.550;-64.300;2024-03-08T19:33:08;29.10;66.40
81867;DHT22;71318;-36.550;-64.300;2024-03-08T19:35:37;29.10;67.10
81867;DHT22;71318;-36.550;-64.300;2024-03-08T19:38:04;29.70;65.10
81867;DHT22;71318;-36.550;-64.300;2024-03-08T19:40:32;30.00;64.90
81867;DHT22;71318;-36.550;-64.300;2024-03-08T19:43:01;29.50;65.30
81867;DHT22;71318;-36.550;-64.300;2024-03-08T19:45:28;29.20;66.50
81867;DHT22;71318;-36.550;-64.300;2024-03-08T19:47:59;29.30;66.10
81867;DHT22;71318;-36.550;-64.300;2024-03-08T19:50:27;29.70;64.40
81867;DHT22;71318;-36.550;-64.300;2024-03-08T19:52:53;29.80;65.40
81867;DHT22;71318;-36.550;-64.300;2024-03-08T19:55:20;29.80;63.70
81867;DHT22;71318;-36.550;-64.300;2024-03-08T19:57:47;29.40;63.70
81867;DHT22;71318;-36.550;-64.300;2024-03-08T20:00:18;29.30;64.50
81867;DHT22;71318;-36.550;-64.300;2024-03-08T20:02:49;29.20;66.40
81867;DHT22;71318;-36.550;-64.300;2024-03-08T20:05:15;29.80;65.70
81867;DHT22;71318;-36.550;-64.300;2024-03-08T20:07:46;29.40;66.70
81867;DHT22;71318;-36.550;-64.300;2024-03-08T20:10:15;29.40;65.00
81867;DHT22;71318;-36.550;-64.300;2024-03-08T20:12:42;29.50;64.90
81867;DHT22;71318;-36.550;-64.300;2024-03-08T20:15:09;29.50;64.40
81867;DHT22;71318;-36.550;-64.300;2024-03-08T20:17:36;29.70;64.30
81867;DHT22;71318;-36.550;-64.300;2024-03-08T20:20:06;29.60;62.20
81867;DHT22;71318;-36.550;-64.300;2024-03-08T20:22:43;29.50;64.40
81867;DHT22;71318;-36.550;-64.300;2024-03-08T20:25:11;29.60;63.00
81867;DHT22;71318;-36.550;-64.300;2024-03-08T20:27:46;29.90;61.90
81867;DHT22;71318;-36.550;-64.300;2024-03-08T20:30:20;29.80;61.90
81867;DHT22;71318;-36.550;-64.300;2024-03-08T20:32:53;29.20;63.80
81867;DHT22;71318;-36.550;-64.300;2024-03-08T20:35:25;29.20;63.30
81867;DHT22;71318;-36.550;-64.300;2024-03-08T20:37:52;29.30;63.30
81867;DHT22;71318;-36.550;-64.300;2024-03-08T20:40:19;29.30;63.60
81867;DHT22;71318;-36.550;-64.300;2024-03-08T20:43:03;29.30;62.10
81867;DHT22;71318;-36.550;-64.300;2024-03-08T20:45:29;28.90;64.70
81867;DHT22;71318;-36.550;-64.300;2024-03-08T21:12:21;28.60;69.30
81867;DHT22;71318;-36.550;-64.300;2024-03-08T21:14:50;28.60;69.60
81867;DHT22;71318;-36.550;-64.300;2024-03-08T21:17:16;28.60;68.50
81867;DHT22;71318;-36.550;-64.300;2024-03-08T21:19:44;28.60;67.80
81867;DHT22;71318;-36.550;-64.300;2024-03-08T21:22:11;28.50;68.30
81867;DHT22;71318;-36.550;-64.300;2024-03-08T21:24:38;28.50;66.60
81867;DHT22;71318;-36.550;-64.300;2024-03-08T21:27:04;28.40;65.60
81867;DHT22;71318;-36.550;-64.300;2024-03-08T21:29:31;28.30;65.90
